createdAt,value
2022-10-26T05:11:28.098Z,8.50
2022-10-26T05:16:50.817Z,8.46
2022-10-26T05:22:11.857Z,8.45
2022-10-26T05:27:32.748Z,8.47
2022-10-26T05:32:54.231Z,8.45
2022-10-26T05:38:17.471Z,8.58
2022-10-26T05:43:38.222Z,8.68
2022-10-26T05:48:59.207Z,8.72
2022-10-26T05:54:20.078Z,8.71
2022-10-26T05:59:41.198Z,8.50
2022-10-26T06:05:06.053Z,8.40
2022-10-26T06:10:27.628Z,8.74
2022-10-26T06:16:15.932Z,9.15
2022-10-26T06:21:55.088Z,9.31
2022-10-26T06:27:33.565Z,9.45
2022-10-26T06:33:05.854Z,9.23
2022-10-26T06:38:35.309Z,8.88
2022-10-26T06:43:56.723Z,8.86
2022-10-26T06:49:35.020Z,8.97
2022-10-26T06:54:57.673Z,9.10
2022-10-26T07:00:25.256Z,9.26
2022-10-26T07:05:46.531Z,9.44
2022-10-26T07:11:09.326Z,9.54
2022-10-26T07:16:30.163Z,9.74
2022-10-26T07:21:51.025Z,9.96
2022-10-26T07:27:11.862Z,10.13
2022-10-26T07:32:33.041Z,10.28
2022-10-26T07:37:56.717Z,10.46
2022-10-26T07:43:17.483Z,10.67
2022-10-26T07:48:39.628Z,10.91
2022-10-26T07:54:00.424Z,11.38
2022-10-26T07:59:21.173Z,12.12
2022-10-26T08:04:41.941Z,12.70
2022-10-26T08:10:02.339Z,13.17
2022-10-26T08:15:23.240Z,13.35
2022-10-26T08:20:44.056Z,13.86
2022-10-26T08:26:05.086Z,14.76
2022-10-26T08:31:25.966Z,15.64
2022-10-26T08:36:47.972Z,16.37
2022-10-26T08:42:22.867Z,16.66
2022-10-26T08:47:48.142Z,17.48
2022-10-26T08:53:21.920Z,17.96
2022-10-26T08:58:50.118Z,17.98
2022-10-26T09:04:13.310Z,17.70
2022-10-26T09:10:16.628Z,17.52
2022-10-26T09:16:10.657Z,17.38
2022-10-26T09:21:56.315Z,17.15
2022-10-26T09:27:26.953Z,17.17
2022-10-26T09:32:57.421Z,17.24
2022-10-26T09:38:44.413Z,17.13
2022-10-26T09:44:45.553Z,17.07
2022-10-26T09:50:09.524Z,17.16
2022-10-26T10:11:13.513Z,17.49
2022-10-26T10:16:35.311Z,17.50
2022-10-26T10:22:01.921Z,17.60
2022-10-26T10:27:24.076Z,17.72
2022-10-26T10:32:44.793Z,17.59
2022-10-26T10:38:06.432Z,17.73
2022-10-26T10:43:27.523Z,17.74
2022-10-26T10:48:53.688Z,17.96
2022-10-26T10:54:29.080Z,18.38
2022-10-26T11:00:03.828Z,18.67
2022-10-26T11:05:33.615Z,18.85
2022-10-26T11:11:18.956Z,19.06
2022-10-26T11:16:47.498Z,19.27
2022-10-26T11:22:14.449Z,19.46
2022-10-26T11:27:38.228Z,19.72
2022-10-26T11:33:24.657Z,20.12
2022-10-26T11:39:06.202Z,20.38
2022-10-26T11:44:38.069Z,20.19
2022-10-26T11:50:04.912Z,20.57
2022-10-26T11:55:26.057Z,20.66
2022-10-26T12:01:07.944Z,20.80
2022-10-26T12:06:32.640Z,20.86
2022-10-26T12:12:04.234Z,20.66
2022-10-26T12:17:41.972Z,20.66
2022-10-26T12:23:10.327Z,20.77
2022-10-26T12:28:37.816Z,21.10
2022-10-26T12:34:00.044Z,21.28
2022-10-26T12:39:37.368Z,21.14
2022-10-26T12:44:58.234Z,21.25
2022-10-26T12:50:23.767Z,20.92
2022-10-26T12:55:50.445Z,21.05
2022-10-26T13:01:20.208Z,21.16
2022-10-26T13:06:41.321Z,21.23
2022-10-26T13:12:04.219Z,20.94
2022-10-26T13:17:31.663Z,21.10
2022-10-26T13:22:53.421Z,21.31
2022-10-26T13:28:42.166Z,21.33
2022-10-26T13:34:18.673Z,21.30
2022-10-26T13:39:43.205Z,21.36
2022-10-26T13:45:12.294Z,21.38
2022-10-26T13:50:55.030Z,21.12
2022-10-26T13:56:21.867Z,20.90
2022-10-26T14:01:42.934Z,20.78
2022-10-26T14:07:03.662Z,20.66
2022-10-26T14:12:28.384Z,20.54
2022-10-26T14:17:51.323Z,20.31
2022-10-26T14:23:32.681Z,20.12
2022-10-26T14:28:59.660Z,19.81
2022-10-26T14:34:21.689Z,19.53
2022-10-26T14:39:45.451Z,19.40
2022-10-26T14:45:29.455Z,19.17
2022-10-26T14:51:11.609Z,18.82
2022-10-26T14:56:35.404Z,18.58
2022-10-26T15:02:21.131Z,18.33
2022-10-26T15:07:43.583Z,18.08
2022-10-26T15:13:17.659Z,17.82
2022-10-26T15:18:38.878Z,17.48
2022-10-26T15:24:01.096Z,17.20
2022-10-26T15:29:43.708Z,16.94
2022-10-26T15:35:12.437Z,16.63
2022-10-26T15:40:33.559Z,16.41
2022-10-26T15:45:56.413Z,16.14
2022-10-26T15:51:17.369Z,15.85
2022-10-26T15:56:39.798Z,15.57
2022-10-26T16:02:01.073Z,15.47
2022-10-26T16:07:25.708Z,15.26
2022-10-26T16:12:47.031Z,15.01
2022-10-26T16:18:08.292Z,14.88
2022-10-26T16:23:29.419Z,14.67
2022-10-26T16:28:51.810Z,14.51
2022-10-26T16:34:12.901Z,14.44
2022-10-26T16:39:33.850Z,14.37
2022-10-26T16:44:57.592Z,14.30
2022-10-26T16:50:22.094Z,14.25
2022-10-26T16:55:44.188Z,14.15
2022-10-26T17:01:05.862Z,14.05
2022-10-26T17:06:26.769Z,13.99
2022-10-26T17:11:47.751Z,13.95
2022-10-26T17:17:08.734Z,13.95
2022-10-26T17:22:29.649Z,14.02
2022-10-26T17:27:50.281Z,14.02
2022-10-26T17:33:12.271Z,14.00
2022-10-26T17:38:34.963Z,13.89
2022-10-26T17:43:55.965Z,13.85
2022-10-26T17:49:16.758Z,13.84
2022-10-26T17:54:37.807Z,13.87
2022-10-26T17:59:58.731Z,13.89
2022-10-26T18:05:19.792Z,13.88
2022-10-26T18:10:53.301Z,13.77
2022-10-26T18:16:24.398Z,13.71
2022-10-26T18:21:45.362Z,13.70
2022-10-26T18:27:06.304Z,13.66
2022-10-26T18:32:26.929Z,13.67
2022-10-26T18:37:48.219Z,13.71
2022-10-26T18:43:09.220Z,13.73
2022-10-26T18:48:30.128Z,13.66
2022-10-26T18:53:51.048Z,13.66
2022-10-26T18:59:11.822Z,13.65
2022-10-26T19:04:32.996Z,13.59
2022-10-26T19:09:54.025Z,13.59
2022-10-26T19:15:15.501Z,13.64
2022-10-26T19:20:38.630Z,13.62
2022-10-26T19:26:00.106Z,13.61
2022-10-26T19:31:23.645Z,13.61
2022-10-26T19:36:47.861Z,13.62
2022-10-26T19:42:08.822Z,13.56
2022-10-26T19:47:29.554Z,13.48
2022-10-26T19:52:50.589Z,13.47
2022-10-26T19:58:12.960Z,13.47
2022-10-26T20:03:34.362Z,13.40
2022-10-26T20:08:55.197Z,13.33
2022-10-26T20:14:16.168Z,13.24
2022-10-26T20:19:36.896Z,13.16
2022-10-26T20:24:57.615Z,13.04
2022-10-26T20:30:18.469Z,12.93
2022-10-26T20:35:39.569Z,12.85
2022-10-26T20:41:01.351Z,12.76
2022-10-26T20:46:26.387Z,12.63
2022-10-26T20:52:15.693Z,12.55
2022-10-26T20:57:36.827Z,12.50
2022-10-26T21:02:57.611Z,12.38
2022-10-26T21:08:18.561Z,12.35
2022-10-26T21:13:39.233Z,12.31
2022-10-26T21:19:00.317Z,12.23
2022-10-26T21:24:21.340Z,12.20
2022-10-26T21:29:42.127Z,12.09
2022-10-26T21:35:03.083Z,11.98
2022-10-26T21:40:24.111Z,11.87
2022-10-26T21:45:44.964Z,11.79
2022-10-26T21:51:06.457Z,11.73
2022-10-26T21:56:27.266Z,11.72
